Time;durP1;ratioP1;P1;durP2;ratioP2;P2;SDS_P1;SDS_P2;PMS_P1;PMS_P2;Temp;Humidity;BMP_temperature;BMP_pressure;BME280_temperature;BME280_humidity;BME280_pressure;Samples;Min_cycle;Max_cycle;Signal;HPM_P1;HPM_P2
2022/06/24 00:02:00;;;;;;;10.70;8.30;;;;;;;18.76;54.28;100424.23;108886;1269;22520;-79
2022/06/24 00:04:37;;;;;;;10.20;8.00;;;;;;;18.72;54.29;100424.95;108924;1270;23756;-79
2022/06/24 00:07:36;;;;;;;;;;;;;;;;;;;;;
2022/06/24 00:10:43;;;;;;;10.30;7.80;;;;;;;18.66;54.52;100421.29;108987;1268;21995;-78
2022/06/24 00:13:43;;;;;;;10.40;8.50;;;;;;;18.65;54.57;100427.23;108971;1268;23112;-78
2022/06/24 00:17:05;;;;;;;;;;;;;;;;;;;;;
2022/06/24 00:20:05;;;;;;;10.60;7.70;;;;;;;18.63;54.70;100424.90;110326;1257;24360;-78
2022/06/24 00:22:52;;;;;;;10.70;8.30;;;;;;;18.59;54.71;100421.10;109458;1263;23049;-77
2022/06/24 00:25:45;;;;;;;14.30;8.80;;;;;;;18.54;54.72;100425.01;109080;1264;22975;-78
2022/06/24 00:28:37;;;;;;;9.60;8.60;;;;;;;18.48;54.79;100430.05;109606;1260;22496;-78
2022/06/24 00:31:11;;;;;;;11.90;9.00;;;;;;;18.43;54.99;100428.64;109808;1259;21972;-77
2022/06/24 00:33:53;;;;;;;9.30;8.00;;;;;;;18.41;55.23;100429.31;109999;1259;23605;-78
2022/06/24 00:36:49;;;;;;;10.60;9.30;;;;;;;18.41;55.36;100426.27;109964;1260;23091;-78
2022/06/24 00:39:46;;;;;;;15.30;9.20;;;;;;;18.41;55.43;100425.27;109714;1259;21983;-78
2022/06/24 00:42:42;;;;;;;11.90;9.50;;;;;;;18.42;55.52;100425.56;110359;1255;21978;-78
2022/06/24 00:46:12;;;;;;;9.60;8.50;;;;;;;18.42;55.66;100424.65;110368;1256;22992;-77
2022/06/24 00:49:37;;;;;;;;;;;;;;;;;;;;;
2022/06/24 00:52:37;;;;;;;9.40;7.20;;;;;;;18.34;55.87;100423.23;109742;1260;21976;-77
2022/06/24 00:55:36;;;;;;;;;;;;;;;;;;;;;
2022/06/24 00:58:37;;;;;;;13.80;7.10;;;;;;;18.30;56.00;100412.93;109808;1262;22432;-77
2022/06/24 01:01:39;;;;;;;10.20;7.50;;;;;;;18.26;56.02;100413.45;109777;1263;22750;-77
2022/06/24 01:04:45;;;;;;;10.40;7.00;;;;;;;18.25;56.11;100411.48;110101;1257;22027;-78
2022/06/24 01:07:52;;;;;;;10.70;7.40;;;;;;;18.24;56.23;100409.31;110377;1257;22004;-77
2022/06/24 01:10:42;;;;;;;8.90;8.00;;;;;;;18.23;56.26;100405.04;109999;1257;22103;-79
2022/06/24 01:13:50;;;;;;;16.00;8.10;;;;;;;18.21;56.48;100405.55;110008;1257;21970;-77
2022/06/24 01:16:26;;;;;;;8.80;7.90;;;;;;;18.20;56.67;100406.86;110192;1257;22727;-78
2022/06/24 01:19:44;;;;;;;;;;;;;;;;;;;;;
2022/06/24 01:22:38;;;;;;;11.70;9.30;;;;;;;18.12;56.67;100403.18;110404;1256;23005;-78
2022/06/24 01:25:33;;;;;;;10.50;8.00;;;;;;;18.10;56.66;100399.27;110455;1249;22081;-78
2022/06/24 01:28:24;;;;;;;9.60;8.10;;;;;;;18.07;56.67;100398.48;110260;1253;21966;-78
2022/06/24 01:31:15;;;;;;;8.60;7.70;;;;;;;18.04;56.76;100399.17;110496;1255;23718;-78
2022/06/24 01:34:01;;;;;;;9.20;7.30;;;;;;;18.04;56.93;100396.33;110450;1254;21961;-77
2022/06/24 01:36:55;;;;;;;7.60;6.70;;;;;;;18.08;57.05;100400.16;110500;1254;23685;-79
2022/06/24 01:39:48;;;;;;;;;;;;;;;;;;;;;
2022/06/24 01:42:32;;;;;;;10.40;8.30;;;;;;;18.05;57.04;100393.11;110531;1252;24291;-77
2022/06/24 01:45:29;;;;;;;;;;;;;;;;;;;;;
2022/06/24 01:48:16;;;;;;;11.50;8.40;;;;;;;18.00;56.97;100394.88;110406;1254;21947;-78
2022/06/24 01:51:31;;;;;;;14.10;7.60;;;;;;;17.95;56.98;100393.19;110435;1253;23027;-78
2022/06/24 01:54:23;;;;;;;10.50;7.70;;;;;;;17.89;57.15;100391.08;110499;1253;21962;-77
2022/06/24 01:57:15;;;;;;;;;;;;;;;17.87;57.23;100385.55;110463;1253;21977;-78
2022/06/24 01:59:59;;;;;;;8.70;6.70;;;;;;;17.80;57.72;100384.63;110493;1253;21971;-76
2022/06/24 02:02:55;;;;;;;12.00;8.30;;;;;;;17.84;57.68;100388.94;110604;1247;23111;-78
2022/06/24 02:05:50;;;;;;;;;;;;;;;;;;;;;
2022/06/24 02:08:36;;;;;;;15.00;8.60;;;;;;;17.83;57.55;100391.03;110536;1254;23672;-77
2022/06/24 02:14:33;;;;;;;10.80;8.60;;;;;;;17.72;57.55;100392.54;109356;1263;24861;-78
2022/06/24 02:17:26;;;;;;;10.00;8.20;;;;;;;17.63;57.68;100391.27;109331;1263;22361;-78
2022/06/24 02:20:09;;;;;;;10.90;8.20;;;;;;;17.58;57.81;100390.80;109577;1263;23620;-78
2022/06/24 02:23:12;;;;;;;;;;;;;;;;;;;;;
2022/06/24 02:26:13;;;;;;;9.40;8.50;;;;;;;17.49;58.00;100389.32;110125;1257;23697;-78
2022/06/24 02:29:06;;;;;;;9.30;7.90;;;;;;;17.47;58.19;100391.09;110129;1255;22031;-78
2022/06/24 02:31:45;;;;;;;10.70;8.50;;;;;;;17.46;58.41;100391.34;110265;1250;22797;-78
2022/06/24 02:34:35;;;;;;;10.70;8.70;;;;;;;17.44;58.41;100393.77;110818;1249;21970;-78
2022/06/24 02:37:20;;;;;;;11.20;9.80;;;;;;;17.37;58.20;100392.77;110390;1257;21979;-78
2022/06/24 02:43:23;;;;;;;10.10;9.00;;;;;;;17.21;58.44;100391.39;110102;1257;21984;-78
2022/06/24 02:46:28;;;;;;;10.40;9.00;;;;;;;17.16;58.71;100389.67;110326;1257;22776;-79
2022/06/24 02:49:34;;;;;;;16.40;9.30;;;;;;;17.16;59.07;100392.11;110321;1257;21969;-76
2022/06/24 02:52:49;;;;;;;19.30;10.50;;;;;;;17.19;59.10;100392.05;110193;1257;21996;-77
2022/06/24 02:55:46;;;;;;;11.70;10.10;;;;;;;17.15;59.02;100390.54;110465;1251;23674;-78
2022/06/24 02:58:41;;;;;;;15.30;10.90;;;;;;;17.12;59.17;100387.60;110753;1249;22417;-79
2022/06/24 03:01:20;;;;;;;12.70;9.40;;;;;;;17.11;59.30;100389.54;110773;1250;23119;-78
2022/06/24 03:04:00;;;;;;;17.30;10.70;;;;;;;17.09;59.26;100390.35;110734;1249;23674;-79
2022/06/24 03:06:56;;;;;;;14.90;9.50;;;;;;;17.07;59.32;100389.14;110775;1250;23131;-78
2022/06/24 03:10:01;;;;;;;10.50;9.10;;;;;;;17.07;59.58;100389.66;110849;1250;23810;-77
2022/06/24 03:12:47;;;;;;;;;;;;;;;;;;;;;
2022/06/24 03:15:22;;;;;;;10.30;9.20;;;;;;;17.04;59.63;100390.86;110075;1260;23055;-82
2022/06/24 03:18:07;;;;;;;15.40;9.10;;;;;;;17.05;59.58;100388.48;109588;1260;23718;-82
2022/06/24 03:20:50;;;;;;;16.20;10.70;;;;;;;17.05;59.70;100389.55;110181;1260;23791;-81
2022/06/24 03:23:32;;;;;;;16.60;10.00;;;;;;;17.06;59.83;100392.04;109517;1264;22059;-81
2022/06/24 03:26:15;;;;;;;16.90;9.90;;;;;;;17.07;59.99;100393.52;109511;1263;22047;-82
2022/06/24 03:29:04;;;;;;;13.70;9.10;;;;;;;17.09;59.87;100397.02;109172;1267;22062;-81
2022/06/24 03:32:28;;;;;;;11.70;9.50;;;;;;;17.07;59.69;100395.83;109316;1267;21988;-81
2022/06/24 03:35:17;;;;;;;11.80;9.40;;;;;;;17.07;59.87;100392.20;109551;1263;23600;-80
2022/06/24 03:37:53;;;;;;;10.30;9.10;;;;;;;17.07;59.95;100390.29;110161;1259;21972;-80
2022/06/24 03:40:41;;;;;;;13.50;9.80;;;;;;;17.10;60.18;100390.40;110089;1259;22014;-82
2022/06/24 03:43:12;;;;;;;11.00;8.90;;;;;;;17.15;60.30;100389.89;110460;1257;21969;-81
2022/06/24 03:46:12;;;;;;;17.00;9.90;;;;;;;17.22;60.48;100390.89;109692;1263;22449;-82
2022/06/24 03:49:21;;;;;;;10.20;8.70;;;;;;;17.28;60.46;100389.35;110812;1254;22171;-83
2022/06/24 03:52:20;;;;;;;;;;;;;;;;;;;;;
2022/06/24 03:55:56;;;;;;;14.20;8.60;;;;;;;17.39;60.22;100385.88;110575;1255;23643;-80
2022/06/24 03:58:54;;;;;;;12.50;8.40;;;;;;;17.48;60.18;100385.59;110531;1255;23705;-79
2022/06/24 04:02:09;;;;;;;11.80;8.50;;;;;;;17.63;60.20;100388.18;110213;1260;21985;-81
2022/06/24 04:05:43;;;;;;;9.00;8.10;;;;;;;17.75;59.94;100390.16;110789;1255;21959;-82
2022/06/24 04:08:43;;;;;;;11.00;8.00;;;;;;;17.83;59.80;100391.36;110564;1254;21973;-83
2022/06/24 04:12:18;;;;;;;;;;;;;;;;;;;;;
2022/06/24 04:16:08;;;;;;;;;;;;;;;;;;;;;
2022/06/24 04:23:53;;;;;;;;;;;;;;;;;;;;;
2022/06/24 04:27:23;;;;;;;11.90;8.10;;;;;;;18.32;58.84;100400.64;108140;1282;23087;-80
2022/06/24 04:30:28;;;;;;;;;;;;;;;;;;;;;
2022/06/24 04:33:38;;;;;;;;;;;;;;;;;;;;;
2022/06/24 04:40:47;;;;;;;13.50;9.00;;;;;;;18.89;58.09;100395.92;108151;1283;23028;-79
2022/06/24 04:54:20;;;;;;;8.30;6.20;;;;;;;19.44;56.39;100398.35;107951;1288;22269;-79
2022/06/24 04:56:50;;;;;;;11.00;5.80;;;;;;;19.58;55.73;100401.85;108058;1282;23074;-81
2022/06/24 04:59:49;;;;;;;6.70;5.70;;;;;;;19.67;55.12;100405.22;108425;1276;21954;-81
2022/06/24 05:02:35;;;;;;;8.50;6.10;;;;;;;19.74;54.73;100406.81;108712;1276;21983;-79
2022/06/24 05:05:29;;;;;;;;;;;;;;;;;;;;;
2022/06/24 05:08:36;;;;;;;7.80;5.50;;;;;;;20.00;54.58;100405.80;108657;1276;22005;-80
2022/06/24 05:12:01;;;;;;;7.20;5.30;;;;;;;20.18;54.41;100403.13;108567;1276;22282;-82
2022/06/24 05:14:41;;;;;;;7.30;5.70;;;;;;;20.38;53.90;100407.17;108616;1276;22988;-80
2022/06/24 05:17:24;;;;;;;7.80;5.80;;;;;;;20.57;53.20;100402.25;108927;1270;22653;-80
2022/06/24 05:20:36;;;;;;;;;;;;;;;;;;;;;
2022/06/24 05:24:02;;;;;;;10.90;6.30;;;;;;;21.02;52.17;100400.85;109299;1268;22083;-79
2022/06/24 05:27:44;;;;;;;;;;;;;;;;;;;;;
2022/06/24 05:31:17;;;;;;;6.20;4.50;;;;;;;21.57;51.06;100405.23;108639;1276;21992;-81
2022/06/24 05:34:53;;;;;;;;;;;;;;;;;;;;;
2022/06/24 05:37:59;;;;;;;7.50;4.50;;;;;;;22.17;49.31;100400.48;108644;1276;22008;-80
2022/06/24 05:40:38;;;;;;;9.50;4.70;;;;;;;22.39;48.92;100397.20;108217;1276;22128;-80
2022/06/24 05:43:17;;;;;;;6.10;4.60;;;;;;;22.66;48.38;100398.69;108589;1279;21994;-81
2022/06/24 05:45:49;;;;;;;8.30;4.30;;;;;;;22.95;47.36;100398.92;108612;1279;22483;-81
2022/06/24 05:48:31;;;;;;;8.30;4.20;;;;;;;23.27;46.89;100396.27;108735;1271;22011;-82
2022/06/24 05:51:11;;;;;;;9.00;4.50;;;;;;;23.60;46.29;100393.44;108934;1273;21991;-81
2022/06/24 05:56:40;;;;;;;8.70;3.50;;;;;;;24.39;44.69;100398.55;108517;1273;22016;-75
2022/06/24 05:59:19;;;;;;;6.10;3.80;;;;;;;24.85;43.83;100396.71;108580;1274;21962;-78
2022/06/24 06:01:50;;;;;;;5.20;3.30;;;;;;;25.23;42.74;100396.39;108743;1268;24289;-76
2022/06/24 06:04:20;;;;;;;9.90;3.60;;;;;;;25.55;41.50;100393.09;108843;1268;21983;-77
2022/06/24 06:07:06;;;;;;;7.50;2.90;;;;;;;25.84;40.76;100396.88;108902;1265;23821;-74
2022/06/24 06:09:51;;;;;;;5.10;3.30;;;;;;;26.00;39.84;100396.27;109203;1264;22750;-77
2022/06/24 06:12:44;;;;;;;4.50;3.40;;;;;;;26.22;39.75;100395.94;109250;1264;21995;-77
2022/06/24 06:15:23;;;;;;;6.00;3.20;;;;;;;26.56;38.98;100395.34;109258;1264;21995;-78
2022/06/24 06:18:02;;;;;;;6.10;3.00;;;;;;;26.80;38.08;100396.89;109930;1258;22739;-81
2022/06/24 06:21:04;;;;;;;4.30;3.10;;;;;;;26.99;37.49;100398.09;110674;1253;21953;-81
2022/06/24 06:23:42;;;;;;;4.90;2.80;;;;;;;27.21;36.97;100395.16;110775;1253;23823;-80
2022/06/24 06:26:28;;;;;;;5.50;3.10;;;;;;;27.41;36.34;100397.25;110765;1253;21933;-80
2022/06/24 06:29:08;;;;;;;4.30;3.10;;;;;;;27.61;36.45;100397.09;110842;1253;23028;-80
2022/06/24 06:31:50;;;;;;;4.20;2.60;;;;;;;27.86;35.96;100397.06;111195;1248;23713;-80
2022/06/24 06:34:25;;;;;;;16.60;3.30;;;;;;;28.12;35.66;100396.45;111013;1249;21957;-77
2022/06/24 06:37:01;;;;;;;5.30;3.40;;;;;;;28.32;34.60;100393.52;110537;1249;23002;-77
2022/06/24 06:39:38;;;;;;;4.30;2.60;;;;;;;28.43;34.42;100393.51;110805;1249;23539;-76
2022/06/24 06:42:17;;;;;;;13.60;3.50;;;;;;;28.66;34.44;100394.45;110718;1250;21973;-77
2022/06/24 06:44:55;;;;;;;5.20;3.00;;;;;;;28.80;33.64;100389.29;110832;1247;21951;-78
2022/06/24 06:47:28;;;;;;;5.30;2.80;;;;;;;28.93;32.88;100389.79;110733;1247;21958;-78
2022/06/24 06:50:05;;;;;;;6.10;2.20;;;;;;;29.04;32.60;100387.39;110853;1247;21950;-78
2022/06/24 06:52:48;;;;;;;5.50;3.90;;;;;;;29.31;32.24;100383.44;110927;1247;21950;-78
2022/06/24 06:55:26;;;;;;;4.60;2.50;;;;;;;29.53;31.06;100376.60;110849;1247;24030;-79
2022/06/24 06:58:05;;;;;;;5.00;2.10;;;;;;;29.63;30.78;100373.79;110775;1247;22989;-79
2022/06/24 07:00:37;;;;;;;3.30;2.10;;;;;;;29.63;30.45;100375.25;110849;1247;22393;-79
2022/06/24 07:03:11;;;;;;;5.10;2.40;;;;;;;29.73;30.05;100375.52;110435;1256;21958;-78
2022/06/24 07:05:55;;;;;;;8.40;2.20;;;;;;;29.83;30.16;100371.52;110048;1259;21972;-77
2022/06/24 07:08:41;;;;;;;3.50;2.00;;;;;;;30.02;29.73;100373.62;109987;1259;23607;-79
2022/06/24 07:11:21;;;;;;;5.00;2.20;;;;;;;29.93;28.76;100370.59;109863;1259;23042;-78
2022/06/24 07:13:54;;;;;;;7.20;2.00;;;;;;;29.95;28.89;100371.70;110165;1259;23759;-80
2022/06/24 07:16:32;;;;;;;5.70;2.00;;;;;;;30.03;28.41;100371.85;110094;1259;21972;-79
2022/06/24 07:19:09;;;;;;;6.20;3.90;;;;;;;30.06;28.70;100365.97;110334;1257;23593;-78
2022/06/24 07:21:43;;;;;;;6.30;2.30;;;;;;;30.22;28.21;100368.94;110218;1253;23668;-78
2022/06/24 07:24:15;;;;;;;3.10;1.90;;;;;;;30.22;27.54;100370.70;110466;1250;24332;-79
2022/06/24 07:26:46;;;;;;;4.70;1.80;;;;;;;30.23;27.66;100370.95;110551;1256;22472;-78
2022/06/24 07:29:19;;;;;;;5.20;1.80;;;;;;;30.34;27.05;100369.30;110444;1256;22022;-78
2022/06/24 07:31:57;;;;;;;4.60;1.90;;;;;;;30.33;26.89;100364.29;110454;1254;21935;-79
2022/06/24 07:34:33;;;;;;;5.10;1.90;;;;;;;30.53;26.98;100360.23;110358;1254;22364;-79
2022/06/24 07:37:17;;;;;;;3.60;1.70;;;;;;;30.82;27.02;100362.84;109873;1261;21980;-80
2022/06/24 07:39:52;;;;;;;9.00;3.10;;;;;;;31.09;26.27;100367.94;109869;1261;22113;-79
2022/06/24 07:42:29;;;;;;;2.70;1.80;;;;;;;31.16;25.73;100363.75;109667;1261;21976;-80
2022/06/24 07:45:06;;;;;;;3.20;1.50;;;;;;;31.06;25.36;100367.59;110055;1258;21962;-79
2022/06/24 07:47:55;;;;;;;3.10;1.70;;;;;;;30.91;25.49;100367.65;110489;1256;21979;-78
2022/06/24 07:50:38;;;;;;;3.80;1.80;;;;;;;30.70;25.13;100362.04;110370;1255;21982;-79
2022/06/24 07:53:22;;;;;;;5.70;2.00;;;;;;;30.65;25.67;100354.92;110082;1256;22043;-79
2022/06/24 07:59:13;;;;;;;3.30;1.40;;;;;;;30.91;25.29;100348.13;110128;1254;22028;-80
2022/06/24 08:01:52;;;;;;;6.30;1.90;;;;;;;30.95;24.88;100348.22;110748;1250;23668;-79
2022/06/24 08:04:32;;;;;;;4.90;1.90;;;;;;;30.93;24.44;100347.43;110878;1248;22035;-79
2022/06/24 08:07:15;;;;;;;;;;;;;;;;;;;;;
2022/06/24 08:09:56;;;;;;;4.30;1.70;;;;;;;31.07;24.33;100340.96;110939;1247;23017;-79
2022/06/24 08:12:32;;;;;;;4.90;2.30;;;;;;;30.96;23.71;100339.84;110880;1247;22715;-80
2022/06/24 08:15:22;;;;;;;11.00;1.70;;;;;;;30.58;23.54;100332.33;111095;1249;21973;-80
2022/06/24 08:18:19;;;;;;;8.10;1.40;;;;;;;30.40;24.00;100335.39;111083;1249;23066;-81
2022/06/24 08:21:45;;;;;;;7.40;1.70;;;;;;;30.31;24.39;100327.11;110756;1248;21982;-79
2022/06/24 08:24:50;;;;;;;6.40;1.70;;;;;;;30.46;24.11;100320.50;110549;1253;21968;-81
2022/06/24 08:28:03;;;;;;;;;;;;;;;;;;;;;
2022/06/24 08:31:17;;;;;;;8.10;1.70;;;;;;;30.38;23.87;100315.98;110485;1254;22384;-81
2022/06/24 08:34:44;;;;;;;2.20;1.30;;;;;;;30.13;24.45;100312.09;110326;1255;21965;-79
2022/06/24 08:37:39;;;;;;;2.30;1.30;;;;;;;30.14;24.92;100305.27;110109;1257;24098;-78
2022/06/24 08:40:16;;;;;;;2.40;1.30;;;;;;;30.27;24.79;100305.48;109984;1257;23703;-78
2022/06/24 08:42:54;;;;;;;2.70;1.30;;;;;;;30.42;24.58;100307.08;109704;1262;22905;-77
2022/06/24 08:45:30;;;;;;;2.10;1.40;;;;;;;30.37;24.56;100299.91;109332;1260;23070;-78
2022/06/24 08:48:24;;;;;;;2.70;1.10;;;;;;;30.34;24.68;100299.46;108944;1267;23633;-77
2022/06/24 08:51:10;;;;;;;3.60;1.50;;;;;;;30.42;24.49;100298.48;109128;1267;21996;-77
2022/06/24 08:53:48;;;;;;;8.70;1.60;;;;;;;30.49;24.46;100292.23;108919;1267;21991;-80
2022/06/24 08:56:40;;;;;;;6.70;1.10;;;;;;;30.68;23.87;100291.74;109278;1267;21968;-77
2022/06/24 08:59:13;;;;;;;2.90;1.50;;;;;;;30.69;23.57;100296.66;109031;1267;23057;-77
2022/06/24 09:02:12;;;;;;;2.20;1.20;;;;;;;30.64;23.39;100290.60;108977;1267;23758;-77
2022/06/24 09:05:11;;;;;;;;;;;;;;;;;;;;;
2022/06/24 09:08:34;;;;;;;6.20;1.50;;;;;;;30.48;23.46;100277.93;110160;1259;23060;-81
2022/06/24 09:11:26;;;;;;;8.10;1.50;;;;;;;30.45;23.41;100277.45;109551;1259;22527;-82
2022/06/24 09:14:03;;;;;;;7.20;1.90;;;;;;;30.45;23.80;100275.40;109920;1259;21966;-77
2022/06/24 09:16:51;;;;;;;3.70;1.60;;;;;;;30.66;23.89;100274.10;109784;1260;23634;-78
2022/06/24 09:19:47;;;;;;;4.50;1.50;;;;;;;30.86;23.44;100275.40;109971;1256;21956;-78
2022/06/24 09:22:47;;;;;;;10.60;1.80;;;;;;;30.98;23.11;100271.23;110244;1259;21962;-80
2022/06/24 09:29:47;;;;;;;3.10;1.50;;;;;;;30.91;23.01;100273.98;108861;1270;22778;-82
2022/06/24 09:33:01;;;;;;;4.30;1.40;;;;;;;31.13;23.35;100271.55;109003;1270;23628;-82
2022/06/24 09:36:54;;;;;;;6.30;1.60;;;;;;;31.23;23.02;100274.32;109104;1270;23738;-82
2022/06/24 09:39:48;;;;;;;3.70;1.70;;;;;;;31.00;23.33;100269.42;108964;1271;22015;-82
2022/06/24 09:42:40;;;;;;;5.80;1.60;;;;;;;31.04;23.34;100268.75;108668;1277;22005;-83
2022/06/24 09:46:17;;;;;;;2.80;1.30;;;;;;;31.03;22.72;100268.39;108926;1273;22518;-82
2022/06/24 09:49:24;;;;;;;3.20;1.80;;;;;;;30.81;22.43;100260.41;108563;1279;22456;-83
2022/06/24 09:52:59;;;;;;;2.80;1.10;;;;;;;30.55;22.35;100258.36;108639;1279;21997;-83
2022/06/24 09:55:44;;;;;;;7.30;2.00;;;;;;;30.44;22.70;100258.84;108491;1279;21993;-82
2022/06/24 09:58:40;;;;;;;2.70;1.20;;;;;;;30.40;23.06;100252.01;108506;1279;21991;-83
2022/06/24 10:02:21;;;;;;;3.80;1.40;;;;;;;30.39;23.34;100245.86;108639;1274;22005;-82
2022/06/24 10:09:29;;;;;;;;;;;;;;;;;;;;;
2022/06/24 10:12:17;;;;;;;4.10;1.60;;;;;;;30.21;23.68;100235.52;108905;1270;21984;-80
2022/06/24 10:14:56;;;;;;;4.80;1.50;;;;;;;30.25;23.24;100241.11;108794;1273;22998;-81
2022/06/24 10:18:25;;;;;;;2.40;1.40;;;;;;;30.10;23.24;100236.59;108735;1273;22320;-79
2022/06/24 10:21:26;;;;;;;3.70;1.40;;;;;;;29.90;23.60;100228.07;108985;1273;21998;-82
2022/06/24 10:24:42;;;;;;;7.30;2.10;;;;;;;29.93;23.66;100220.55;108903;1273;21991;-79
2022/06/24 10:27:19;;;;;;;3.00;1.20;;;;;;;29.93;23.69;100224.18;109634;1262;22443;-79
2022/06/24 10:29:51;;;;;;;2.60;1.40;;;;;;;29.89;23.54;100225.13;109568;1260;617643;-79
2022/06/24 10:32:29;;;;;;;4.90;1.50;;;;;;;29.85;23.48;100219.16;110335;1257;23597;-79
2022/06/24 10:36:00;;;;;;;4.70;1.40;;;;;;;29.87;23.60;100216.94;109771;1264;22290;-81
2022/06/24 10:38:50;;;;;;;4.70;1.80;;;;;;;29.73;23.05;100216.96;109394;1267;23609;-81
2022/06/24 10:42:13;;;;;;;3.30;2.00;;;;;;;29.45;23.38;100212.46;109297;1268;22001;-80
2022/06/24 10:45:45;;;;;;;2.20;0.90;;;;;;;29.32;23.26;100210.21;109858;1262;22014;-81
2022/06/24 10:48:57;;;;;;;4.20;1.00;;;;;;;29.09;23.24;100203.05;110010;1260;23384;-79
2022/06/24 10:51:36;;;;;;;5.90;1.30;;;;;;;28.87;23.66;100200.14;109149;1267;23592;-80
2022/06/24 10:54:09;;;;;;;3.50;1.50;;;;;;;28.78;23.91;100205.16;109317;1265;21983;-78
2022/06/24 10:56:59;;;;;;;2.90;1.30;;;;;;;28.65;23.94;100199.02;109431;1262;23727;-79
2022/06/24 10:59:35;;;;;;;4.70;1.50;;;;;;;28.61;24.22;100202.17;109947;1261;21973;-78
2022/06/24 11:02:18;;;;;;;6.20;1.00;;;;;;;28.54;24.15;100196.27;109447;1262;22320;-78
2022/06/24 11:04:52;;;;;;;3.70;1.30;;;;;;;28.34;24.17;100201.67;109281;1265;22039;-79
2022/06/24 11:07:26;;;;;;;7.10;1.60;;;;;;;28.16;24.77;100199.30;109048;1263;22921;-79
2022/06/24 11:09:57;;;;;;;3.30;1.10;;;;;;;28.10;25.09;100190.79;109398;1262;21982;-79
2022/06/24 11:12:36;;;;;;;1.50;1.20;;;;;;;28.17;25.16;100188.49;109155;1267;22690;-78
2022/06/24 11:15:45;;;;;;;3.90;1.50;;;;;;;28.25;24.86;100185.09;108821;1270;23018;-79
2022/06/24 11:18:40;;;;;;;5.70;1.60;;;;;;;28.29;24.76;100178.69;108899;1270;22151;-79
2022/06/24 11:21:19;;;;;;;2.90;1.10;;;;;;;28.37;24.67;100168.71;108437;1276;23473;-78
2022/06/24 11:23:54;;;;;;;1.90;1.00;;;;;;;28.42;24.30;100169.67;108512;1273;23027;-78
2022/06/24 11:26:28;;;;;;;2.90;1.70;;;;;;;28.30;24.33;100162.27;108595;1273;21985;-79
2022/06/24 11:29:01;;;;;;;4.20;1.60;;;;;;;28.22;24.58;100160.13;108663;1269;23431;-79
2022/06/24 11:31:33;;;;;;;5.70;1.30;;;;;;;28.22;24.78;100153.56;109385;1264;21984;-79
2022/06/24 11:34:19;;;;;;;1.70;1.20;;;;;;;28.19;24.80;100153.65;108891;1267;23759;-79
2022/06/24 11:36:51;;;;;;;10.00;1.30;;;;;;;28.17;24.69;100148.02;109108;1267;22147;-79
2022/06/24 11:39:28;;;;;;;2.60;1.20;;;;;;;28.20;24.45;100154.55;108716;1270;21981;-78
2022/06/24 11:42:00;;;;;;;5.00;1.10;;;;;;;28.17;24.41;100147.31;108436;1276;22305;-78
2022/06/24 11:44:42;;;;;;;5.00;1.40;;;;;;;28.18;24.54;100145.95;108442;1276;21998;-78
2022/06/24 11:47:32;;;;;;;6.90;2.30;;;;;;;28.19;24.68;100147.57;109097;1267;23050;-79
2022/06/24 11:50:23;;;;;;;2.20;1.60;;;;;;;28.20;24.99;100147.60;109178;1267;23491;-78
2022/06/24 11:53:05;;;;;;;7.80;2.00;;;;;;;28.20;24.90;100142.93;109017;1266;22333;-79
2022/06/24 11:56:03;;;;;;;7.40;1.40;;;;;;;28.21;25.13;100141.62;109372;1266;23169;-79
2022/06/24 11:58:54;;;;;;;3.30;1.60;;;;;;;28.24;25.16;100139.63;109800;1261;22028;-79
2022/06/24 12:01:37;;;;;;;4.30;1.30;;;;;;;28.27;25.18;100136.45;109798;1261;22420;-79
2022/06/24 12:04:12;;;;;;;3.30;3.00;;;;;;;28.27;25.27;100124.44;109767;1261;21976;-79
2022/06/24 12:06:50;;;;;;;2.30;1.70;;;;;;;28.31;25.64;100127.97;110172;1253;23675;-79
2022/06/24 12:09:28;;;;;;;4.10;1.30;;;;;;;28.35;25.67;100125.36;110309;1255;23674;-78
2022/06/24 12:12:14;;;;;;;2.90;1.10;;;;;;;28.42;25.70;100126.17;110567;1249;21977;-79
2022/06/24 12:15:03;;;;;;;3.10;1.70;;;;;;;28.43;25.27;100127.19;110644;1251;21956;-78
2022/06/24 12:17:34;;;;;;;2.80;1.30;;;;;;;28.43;25.35;100120.98;110426;1256;22010;-79
2022/06/24 12:20:13;;;;;;;6.10;1.40;;;;;;;28.46;25.60;100114.10;110275;1256;23579;-79
2022/06/24 12:23:20;;;;;;;3.00;1.20;;;;;;;28.41;24.87;100119.54;110387;1256;22739;-79
2022/06/24 12:26:15;;;;;;;2.30;1.10;;;;;;;28.29;24.54;100116.86;109701;1259;22000;-78
2022/06/24 12:29:05;;;;;;;4.40;1.00;;;;;;;28.17;24.18;100121.89;109951;1259;23037;-80
2022/06/24 12:31:38;;;;;;;2.10;1.10;;;;;;;28.03;24.34;100112.67;109934;1259;21971;-80
2022/06/24 12:34:41;;;;;;;2.00;1.10;;;;;;;27.95;24.79;100101.26;109936;1259;21988;-78
2022/06/24 12:37:23;;;;;;;3.60;1.40;;;;;;;27.96;25.35;100094.23;110460;1254;21973;-79
2022/06/24 12:39:58;;;;;;;9.70;1.60;;;;;;;28.06;25.35;100100.52;110318;1256;22016;-79
2022/06/24 12:42:32;;;;;;;2.80;1.30;;;;;;;28.07;25.09;100099.70;110437;1256;22185;-78
2022/06/24 12:45:25;;;;;;;1.90;1.20;;;;;;;28.05;25.11;100093.74;110578;1250;21962;-78
2022/06/24 12:51:03;;;;;;;2.60;1.60;;;;;;;28.09;25.42;100088.27;110518;1256;22190;-79
2022/06/24 12:54:00;;;;;;;5.40;1.90;;;;;;;28.07;25.64;100082.91;109934;1258;23578;-80
2022/06/24 12:56:34;;;;;;;3.80;1.30;;;;;;;28.03;25.63;100075.90;110249;1259;22007;-79
2022/06/24 12:59:07;;;;;;;21.00;3.20;;;;;;;28.03;25.64;100068.79;110002;1259;22071;-80
2022/06/24 13:01:51;;;;;;;3.50;1.60;;;;;;;28.09;25.63;100066.38;110244;1259;22072;-80
2022/06/24 13:04:28;;;;;;;6.00;1.30;;;;;;;28.10;25.34;100074.45;110160;1259;21983;-79
2022/06/24 13:07:00;;;;;;;4.90;1.40;;;;;;;28.07;25.25;100076.50;110428;1253;22059;-80
2022/06/24 13:09:32;;;;;;;7.40;1.30;;;;;;;28.06;25.39;100070.88;110611;1254;23093;-80
2022/06/24 13:12:14;;;;;;;;;;;;;;;28.05;25.60;100063.11;110924;1250;23013;-79
2022/06/24 13:14:54;;;;;;;5.10;2.00;;;;;;;28.05;25.87;100065.34;110561;1255;23564;-79
2022/06/24 13:17:37;;;;;;;2.30;1.30;;;;;;;28.13;25.76;100060.35;110421;1255;23584;-79
2022/06/24 13:20:12;;;;;;;6.80;1.40;;;;;;;28.18;25.48;100062.73;110290;1255;21979;-80
2022/06/24 13:22:48;;;;;;;7.90;1.60;;;;;;;28.11;25.28;100053.59;110495;1255;23677;-78
2022/06/24 13:25:22;;;;;;;7.10;1.50;;;;;;;28.08;25.30;100047.88;110389;1254;21968;-78
2022/06/24 13:27:59;;;;;;;3.60;1.20;;;;;;;28.14;25.62;100049.90;110030;1259;22739;-80
2022/06/24 13:30:39;;;;;;;2.20;1.30;;;;;;;28.18;25.40;100052.79;109435;1262;21944;-79
2022/06/24 13:33:14;;;;;;;2.20;1.10;;;;;;;28.13;25.26;100050.36;109048;1264;23055;-79
2022/06/24 13:35:47;;;;;;;2.40;1.40;;;;;;;28.06;25.17;100054.41;109201;1264;22006;-81
2022/06/24 13:38:23;;;;;;;4.20;1.30;;;;;;;27.99;25.34;100043.92;109113;1268;23699;-79
2022/06/24 13:40:55;;;;;;;5.70;1.50;;;;;;;28.02;25.53;100040.41;108917;1268;21999;-79
2022/06/24 13:43:50;;;;;;;4.90;1.30;;;;;;;28.06;25.42;100040.73;108949;1268;23192;-78
2022/06/24 13:46:23;;;;;;;4.40;1.10;;;;;;;28.10;25.37;100035.17;109072;1267;22030;-78
2022/06/24 13:49:21;;;;;;;4.20;1.30;;;;;;;28.14;25.67;100036.52;109329;1263;22915;-76
2022/06/24 13:52:29;;;;;;;2.40;1.10;;;;;;;28.13;25.59;100029.30;110063;1256;22033;-78
2022/06/24 13:55:03;;;;;;;3.70;1.50;;;;;;;28.14;25.65;100032.15;109858;1260;23768;-80
2022/06/24 13:58:06;;;;;;;4.50;2.20;;;;;;;28.12;25.71;100031.48;109995;1259;21979;-77
2022/06/24 14:00:40;;;;;;;6.70;1.40;;;;;;;28.15;25.76;100032.59;109100;1267;22086;-78
2022/06/24 14:03:26;;;;;;;4.40;1.60;;;;;;;28.20;25.76;100023.02;109291;1265;21993;-81
2022/06/24 14:06:23;;;;;;;3.80;1.30;;;;;;;28.28;25.91;100021.69;108499;1273;23137;-77
2022/06/24 14:09:00;;;;;;;3.00;1.40;;;;;;;28.32;25.73;100022.23;108675;1272;21999;-76
2022/06/24 14:12:10;;;;;;;4.40;1.10;;;;;;;28.31;25.54;100021.48;108574;1273;22001;-78
2022/06/24 14:15:56;;;;;;;;;;;;;;;;;;;;;
2022/06/24 14:19:30;;;;;;;6.40;1.30;;;;;;;28.23;25.76;100009.05;108760;1267;21986;-77
2022/06/24 14:22:05;;;;;;;2.70;1.30;;;;;;;28.26;26.00;100008.97;108954;1269;22014;-78
2022/06/24 14:24:40;;;;;;;7.30;1.60;;;;;;;28.32;25.98;100003.00;108950;1262;21977;-76
2022/06/24 14:27:16;;;;;;;5.40;2.00;;;;;;;28.36;25.69;100007.30;109340;1265;24267;-77